Time,TemperatureF,DewpointF,PressureIn,WindDirection,WindDirectionDegrees,WindSpeedMPH,WindSpeedGustMPH,Humidity,HourlyPrecipIn,Conditions,Clouds,dailyrainin,SoftwareType,DateUTC
2013-01-01 00:00:00,40.8,39.0,30.24,NW,312,0.0,-999.0,94,-99.99,,,0.00,weatherlink.com 1.10,2013-01-01 08:00:00,
2013-01-01 00:15:00,40.5,39.0,30.24,NW,312,0.0,-999.0,94,-99.99,,,0.00,weatherlink.com 1.10,2013-01-01 08:15:00,
2013-01-01 00:30:00,41.0,39.0,30.24,NW,315,0.0,-999.0,94,-99.99,,,0.00,weatherlink.com 1.10,2013-01-01 08:30:00,
2013-01-01 00:45:00,40.9,40.0,30.24,ESE,120,0.0,-999.0,95,-99.99,,,0.00,weatherlink.com 1.10,2013-01-01 08:45:00,
2013-01-01 01:00:00,41.0,39.0,30.24,SE,127,1.0,-999.0,94,-99.99,,,0.00,weatherlink.com 1.10,2013-01-01 09:00:00,
2013-01-01 01:15:00,41.2,39.0,30.23,SE,138,0.0,-999.0,91,-99.99,,,0.00,weatherlink.com 1.10,2013-01-01 09:15:00,
2013-01-01 01:30:00,41.0,38.0,30.23,SE,130,0.0,-999.0,90,-99.99,,,0.00,weatherlink.com 1.10,2013-01-01 09:30:00,
2013-01-01 01:45:00,40.9,38.0,30.24,NE,49,0.0,-999.0,89,-99.99,,,0.00,weatherlink.com 1.10,2013-01-01 09:45:00,
2013-01-01 02:00:00,41.1,38.0,30.24,North,11,0.0,-999.0,88,-99.99,,,0.00,weatherlink.com 1.10,2013-01-01 10:00:00,
2013-01-01 02:15:00,41.1,38.0,30.24,ESE,120,0.0,-999.0,88,-99.99,,,0.00,weatherlink.com 1.10,2013-01-01 10:15:00,
2013-01-01 02:30:00,40.6,37.0,30.24,SE,131,0.0,-999.0,88,-99.99,,,0.00,weatherlink.com 1.10,2013-01-01 10:30:00,
2013-01-01 02:45:00,40.5,38.0,30.23,SE,137,0.0,-999.0,89,-99.99,,,0.00,weatherlink.com 1.10,2013-01-01 10:45:00,
2013-01-01 03:00:00,40.5,38.0,30.23,SE,135,0.0,-999.0,89,-99.99,,,0.00,weatherlink.com 1.10,2013-01-01 11:00:00,
2013-01-01 03:15:00,40.6,38.0,30.23,SE,132,1.0,-999.0,89,-99.99,,,0.00,weatherlink.com 1.10,2013-01-01 11:15:00,
2013-01-01 03:30:00,41.2,38.0,30.23,NNE,25,1.0,-999.0,88,-99.99,,,0.00,weatherlink.com 1.10,2013-01-01 11:30:00,
2013-01-01 03:45:00,41.4,38.0,30.22,ESE,123,0.0,-999.0,87,-99.99,,,0.00,weatherlink.com 1.10,2013-01-01 11:45:00,
2013-01-01 04:00:00,41.6,38.0,30.21,SE,136,1.0,-999.0,87,-99.99,,,0.00,weatherlink.com 1.10,2013-01-01 12:00:00,
2013-01-01 04:15:00,41.7,38.0,30.21,SE,143,0.0,-999.0,86,-99.99,,,0.00,weatherlink.com 1.10,2013-01-01 12:15:00,
2013-01-01 04:30:00,41.6,38.0,30.20,SE,138,0.0,-999.0,86,-99.99,,,0.00,weatherlink.com 1.10,2013-01-01 12:30:00,
2013-01-01 04:45:00,41.5,38.0,30.20,SE,141,0.0,-999.0,86,-99.99,,,0.00,weatherlink.com 1.10,2013-01-01 12:45:00,
2013-01-01 05:00:00,41.8,38.0,30.20,ESE,121,1.0,-999.0,86,-99.99,,,0.00,weatherlink.com 1.10,2013-01-01 13:00:00,
2013-01-01 05:15:00,42.2,38.0,30.20,SE,136,1.0,-999.0,85,-99.99,,,0.00,weatherlink.com 1.10,2013-01-01 13:15:00,
2013-01-01 05:30:00,42.3,38.0,30.20,ESE,105,1.0,-999.0,84,-99.99,,,0.00,weatherlink.com 1.10,2013-01-01 13:30:00,
2013-01-01 05:45:00,42.2,38.0,30.20,SE,134,1.0,-999.0,84,-99.99,,,0.00,weatherlink.com 1.10,2013-01-01 13:45:00,
2013-01-01 06:00:00,42.1,38.0,30.20,ESE,123,2.0,-999.0,84,-99.99,,,0.00,weatherlink.com 1.10,2013-01-01 14:00:00,
2013-01-01 06:15:00,42.2,38.0,30.20,SE,139,1.0,-999.0,85,-99.99,,,0.00,weatherlink.com 1.10,2013-01-01 14:15:00,
2013-01-01 06:30:00,42.0,38.0,30.20,SE,143,1.0,-999.0,85,-99.99,,,0.00,weatherlink.com 1.10,2013-01-01 14:30:00,
2013-01-01 06:45:00,41.8,38.0,30.20,SE,137,0.0,-999.0,85,-99.99,,,0.00,weatherlink.com 1.10,2013-01-01 14:45:00,
2013-01-01 07:00:00,42.0,38.0,30.20,North,11,0.0,-999.0,85,-99.99,,,0.00,weatherlink.com 1.10,2013-01-01 15:00:00,
2013-01-01 07:15:00,42.1,38.0,30.21,NNE,16,0.0,-999.0,85,-99.99,,,0.00,weatherlink.com 1.10,2013-01-01 15:15:00,
2013-01-01 07:30:00,42.2,38.0,30.22,NNE,17,0.0,-999.0,85,-99.99,,,0.00,weatherlink.com 1.10,2013-01-01 15:30:00,
2013-01-01 07:45:00,42.4,39.0,30.22,SSE,150,0.0,-999.0,86,-99.99,,,0.00,weatherlink.com 1.10,2013-01-01 15:45:00,
2013-01-01 08:00:00,42.9,38.0,30.21,SE,138,0.0,-999.0,83,-99.99,,,0.00,weatherlink.com 1.10,2013-01-01 16:00:00,
2013-01-01 08:15:00,43.6,38.0,30.21,ESE,113,0.0,-999.0,82,-99.99,,,0.00,weatherlink.com 1.10,2013-01-01 16:15:00,
2013-01-01 08:30:00,44.4,39.0,30.22,SE,146,0.0,-999.0,81,-99.99,,,0.00,weatherlink.com 1.10,2013-01-01 16:30:00,
2013-01-01 08:45:00,45.0,39.0,30.22,ESE,122,0.0,-999.0,80,-99.99,,,0.00,weatherlink.com 1.10,2013-01-01 16:45:00,
2013-01-01 09:00:00,45.7,40.0,30.22,SE,129,1.0,-999.0,79,-99.99,,,0.00,weatherlink.com 1.10,2013-01-01 17:00:00,
2013-01-01 09:15:00,46.8,40.0,30.22,NE,39,1.0,-999.0,77,-99.99,,,0.00,weatherlink.com 1.10,2013-01-01 17:15:00,
2013-01-01 09:30:00,47.9,40.0,30.22,SE,124,0.0,-999.0,75,-99.99,,,0.00,weatherlink.com 1.10,2013-01-01 17:30:00,
2013-01-01 09:45:00,49.5,41.0,30.22,SE,124,0.0,-999.0,73,-99.99,,,0.00,weatherlink.com 1.10,2013-01-01 17:45:00,
2013-01-01 10:00:00,51.2,40.0,30.21,SE,126,0.0,-999.0,66,-99.99,,,0.00,weatherlink.com 1.10,2013-01-01 18:00:00,
2013-01-01 10:15:00,52.7,38.0,30.20,SE,138,0.0,-999.0,58,-99.99,,,0.00,weatherlink.com 1.10,2013-01-01 18:15:00,
2013-01-01 10:30:00,53.7,36.0,30.20,North,359,1.0,-999.0,52,-99.99,,,0.00,weatherlink.com 1.10,2013-01-01 18:30:00,
2013-01-01 10:45:00,55.4,35.0,30.19,SE,127,1.0,-999.0,46,-99.99,,,0.00,weatherlink.com 1.10,2013-01-01 18:45:00,
2013-01-01 11:00:00,56.3,34.0,30.18,SE,131,0.0,-999.0,44,-99.99,,,0.00,weatherlink.com 1.10,2013-01-01 19:00:00,
2013-01-01 11:15:00,57.9,34.0,30.18,SE,133,3.0,-999.0,41,-99.99,,,0.00,weatherlink.com 1.10,2013-01-01 19:15:00,
2013-01-01 11:30:00,58.6,33.0,30.17,NE,44,4.0,-999.0,38,-99.99,,,0.00,weatherlink.com 1.10,2013-01-01 19:30:00,
2013-01-01 11:45:00,58.3,33.0,30.16,SSW,204,2.0,-999.0,38,-99.99,,,0.00,weatherlink.com 1.10,2013-01-01 19:45:00,
2013-01-01 12:00:00,58.6,34.0,30.15,SSE,153,0.0,-999.0,39,-99.99,,,0.00,weatherlink.com 1.10,2013-01-01 20:00:00,
2013-01-01 12:15:00,59.1,33.0,30.14,West,270,0.0,-999.0,37,-99.99,,,0.00,weatherlink.com 1.10,2013-01-01 20:15:00,
2013-01-01 12:30:00,59.5,33.0,30.13,SE,127,1.0,-999.0,37,-99.99,,,0.00,weatherlink.com 1.10,2013-01-01 20:30:00,
2013-01-01 12:45:00,60.0,33.0,30.13,NNE,12,2.0,-999.0,36,-99.99,,,0.00,weatherlink.com 1.10,2013-01-01 20:45:00,
2013-01-01 13:01:00,60.7,32.0,30.12,ESE,121,3.0,-999.0,34,-99.99,,,0.00,weatherlink.com 1.10,2013-01-01 21:01:00,
2013-01-01 13:18:00,60.9,32.0,30.11,SSE,159,0.0,-999.0,34,-99.99,,,0.00,weatherlink.com 1.10,2013-01-01 21:18:00,
2013-01-01 13:30:00,60.9,30.0,30.11,East,84,2.0,-999.0,31,-99.99,,,0.00,weatherlink.com 1.10,2013-01-01 21:30:00,
2013-01-01 13:45:00,60.6,29.0,30.10,SE,127,1.0,-999.0,30,-99.99,,,0.00,weatherlink.com 1.10,2013-01-01 21:45:00,
2013-01-01 14:00:00,60.7,30.0,30.10,SE,133,2.0,-999.0,31,-99.99,,,0.00,weatherlink.com 1.10,2013-01-01 22:00:00,
2013-01-01 14:15:00,60.2,27.0,30.10,SE,142,1.0,-999.0,28,-99.99,,,0.00,weatherlink.com 1.10,2013-01-01 22:15:00,
2013-01-01 14:30:00,60.0,26.0,30.10,East,98,2.0,-999.0,27,-99.99,,,0.00,weatherlink.com 1.10,2013-01-01 22:30:00,
2013-01-01 14:45:00,59.9,24.0,30.10,SSE,158,2.0,-999.0,25,-99.99,,,0.00,weatherlink.com 1.10,2013-01-01 22:45:00,
2013-01-01 15:00:00,60.9,26.0,30.10,South,176,1.0,-999.0,26,-99.99,,,0.00,weatherlink.com 1.10,2013-01-01 23:00:00,
2013-01-01 15:15:00,61.8,24.0,30.10,NNE,27,1.0,-999.0,24,-99.99,,,0.00,weatherlink.com 1.10,2013-01-01 23:15:00,
2013-01-01 15:30:00,61.0,24.0,30.09,SE,142,1.0,-999.0,24,-99.99,,,0.00,weatherlink.com 1.10,2013-01-01 23:30:00,
2013-01-01 15:45:00,61.0,24.0,30.09,NW,307,1.0,-999.0,24,-99.99,,,0.00,weatherlink.com 1.10,2013-01-01 23:45:00,
2013-01-01 16:00:00,61.3,24.0,30.09,NE,34,3.0,-999.0,24,-99.99,,,0.00,weatherlink.com 1.10,2013-01-02 00:00:00,
2013-01-01 16:15:00,60.7,22.0,30.09,SSE,150,6.0,-999.0,23,-99.99,,,0.00,weatherlink.com 1.10,2013-01-02 00:15:00,
2013-01-01 16:30:00,59.4,22.0,30.09,East,98,0.0,-999.0,24,-99.99,,,0.00,weatherlink.com 1.10,2013-01-02 00:30:00,
2013-01-01 16:45:00,58.5,23.0,30.09,SE,133,1.0,-999.0,25,-99.99,,,0.00,weatherlink.com 1.10,2013-01-02 00:45:00,
2013-01-01 17:00:00,57.6,23.0,30.09,SE,131,2.0,-999.0,26,-99.99,,,0.00,weatherlink.com 1.10,2013-01-02 01:00:00,
2013-01-01 17:30:00,57.2,21.0,30.09,SE,131,0.0,-999.0,24,-99.99,,,0.00,weatherlink.com 1.10,2013-01-02 01:30:00,
2013-01-01 17:45:00,57.3,21.0,30.10,East,87,4.0,-999.0,24,-99.99,,,0.00,weatherlink.com 1.10,2013-01-02 01:45:00,
2013-01-01 18:00:00,56.6,23.0,30.11,ESE,103,5.0,-999.0,27,-99.99,,,0.00,weatherlink.com 1.10,2013-01-02 02:00:00,
2013-01-01 18:15:00,55.5,24.0,30.11,SE,139,0.0,-999.0,29,-99.99,,,0.00,weatherlink.com 1.10,2013-01-02 02:15:00,
2013-01-01 18:30:00,54.7,22.0,30.11,SE,146,0.0,-999.0,28,-99.99,,,0.00,weatherlink.com 1.10,2013-01-02 02:30:00,
2013-01-01 18:45:00,55.1,21.0,30.11,SW,217,1.0,-999.0,26,-99.99,,,0.00,weatherlink.com 1.10,2013-01-02 02:45:00,
2013-01-01 19:00:00,55.3,21.0,30.12,SSE,160,1.0,-999.0,26,-99.99,,,0.00,weatherlink.com 1.10,2013-01-02 03:00:00,
2013-01-01 19:15:00,55.5,21.0,30.12,NNE,18,3.0,-999.0,26,-99.99,,,0.00,weatherlink.com 1.10,2013-01-02 03:15:00,
2013-01-01 19:30:00,55.2,22.0,30.12,SE,140,0.0,-999.0,27,-99.99,,,0.00,weatherlink.com 1.10,2013-01-02 03:30:00,
2013-01-01 19:45:00,55.0,21.0,30.13,SSW,204,1.0,-999.0,27,-99.99,,,0.00,weatherlink.com 1.10,2013-01-02 03:45:00,
2013-01-01 20:00:00,55.1,21.0,30.13,NNE,15,1.0,-999.0,26,-99.99,,,0.00,weatherlink.com 1.10,2013-01-02 04:00:00,
2013-01-01 20:15:00,55.2,20.0,30.13,SW,214,2.0,-999.0,25,-99.99,,,0.00,weatherlink.com 1.10,2013-01-02 04:15:00,
2013-01-01 20:30:00,55.2,20.0,30.13,SSW,211,1.0,-999.0,25,-99.99,,,0.00,weatherlink.com 1.10,2013-01-02 04:30:00,
2013-01-01 20:45:00,55.1,20.0,30.14,SSE,149,0.0,-999.0,25,-99.99,,,0.00,weatherlink.com 1.10,2013-01-02 04:45:00,
2013-01-01 21:00:00,55.1,19.0,30.14,NNW,342,2.0,-999.0,24,-99.99,,,0.00,weatherlink.com 1.10,2013-01-02 05:00:00,
2013-01-01 21:15:00,54.7,19.0,30.14,NE,43,1.0,-999.0,25,-99.99,,,0.00,weatherlink.com 1.10,2013-01-02 05:15:00,
2013-01-01 21:30:00,53.9,20.0,30.14,ESE,110,0.0,-999.0,26,-99.99,,,0.00,weatherlink.com 1.10,2013-01-02 05:30:00,
2013-01-01 21:45:00,53.3,19.0,30.14,ESE,106,1.0,-999.0,26,-99.99,,,0.00,weatherlink.com 1.10,2013-01-02 05:45:00,
2013-01-01 22:00:00,53.5,19.0,30.15,NE,51,2.0,-999.0,26,-99.99,,,0.00,weatherlink.com 1.10,2013-01-02 06:00:00,
2013-01-01 22:15:00,53.0,20.0,30.15,NNE,22,0.0,-999.0,27,-99.99,,,0.00,weatherlink.com 1.10,2013-01-02 06:15:00,
2013-01-01 22:33:00,52.6,19.0,30.15,ENE,57,0.0,-999.0,27,-99.99,,,0.00,weatherlink.com 1.10,2013-01-02 06:33:00,
2013-01-01 22:45:00,53.8,19.0,30.15,NE,39,3.0,-999.0,25,-99.99,,,0.00,weatherlink.com 1.10,2013-01-02 06:45:00,
2013-01-01 23:00:00,53.4,19.0,30.14,North,1,2.0,-999.0,26,-99.99,,,0.00,weatherlink.com 1.10,2013-01-02 07:00:00,
2013-01-01 23:15:00,52.3,21.0,30.14,North,356,0.0,-999.0,29,-99.99,,,0.00,weatherlink.com 1.10,2013-01-02 07:15:00,
2013-01-01 23:30:00,52.6,19.0,30.14,SE,141,0.0,-999.0,27,-99.99,,,0.00,weatherlink.com 1.10,2013-01-02 07:30:00,
2013-01-01 23:45:00,53.1,20.0,30.14,NNE,32,0.0,-999.0,27,-99.99,,,0.00,weatherlink.com 1.10,2013-01-02 07:45:00,